createdAt,value
2019-03-04T00:00:10.345Z,-1.50
2019-03-04T00:02:37.781Z,-1.50
2019-03-04T00:05:05.239Z,-1.40
2019-03-04T00:07:34.869Z,-1.50
2019-03-04T00:10:02.384Z,-1.40
2019-03-04T00:12:29.437Z,-1.30
2019-03-04T00:14:56.225Z,-1.30
2019-03-04T00:17:22.940Z,-1.40
2019-03-04T00:19:50.813Z,-1.30
2019-03-04T00:22:18.336Z,-1.30
2019-03-04T00:24:45.059Z,-1.30
2019-03-04T00:27:11.958Z,-1.30
2019-03-04T00:29:38.798Z,-1.20
2019-03-04T00:32:05.666Z,-1.20
2019-03-04T00:34:32.490Z,-1.20
2019-03-04T00:37:01.993Z,-1.20
2019-03-04T00:39:28.766Z,-1.20
2019-03-04T00:41:55.529Z,-1.20
2019-03-04T00:44:22.548Z,-1.30
2019-03-04T00:46:49.405Z,-1.60
2019-03-04T00:49:16.097Z,-1.60
2019-03-04T00:51:43.592Z,-1.50
2019-03-04T00:54:10.317Z,-1.40
2019-03-04T00:56:37.844Z,-1.20
2019-03-04T00:59:04.619Z,-1.30
2019-03-04T01:01:32.413Z,-1.20
2019-03-04T01:03:59.383Z,-1.20
2019-03-04T01:06:26.105Z,-1.30
2019-03-04T01:08:52.747Z,-1.40
2019-03-04T01:11:19.432Z,-1.30
2019-03-04T01:13:46.163Z,-1.30
2019-03-04T01:16:13.812Z,-1.50
2019-03-04T01:18:40.540Z,-1.50
2019-03-04T01:21:07.935Z,-1.60
2019-03-04T01:23:35.588Z,-1.80
2019-03-04T01:26:02.997Z,-2.10
2019-03-04T01:28:29.688Z,-2.10
2019-03-04T01:30:57.145Z,-1.90
2019-03-04T01:33:24.686Z,-1.80
2019-03-04T01:35:52.238Z,-1.80
2019-03-04T01:38:18.905Z,-1.70
2019-03-04T01:40:46.434Z,-1.80
2019-03-04T01:43:13.914Z,-1.70
2019-03-04T01:45:41.320Z,-1.80
2019-03-04T01:48:08.019Z,-1.80
2019-03-04T01:50:35.451Z,-1.70
2019-03-04T01:53:02.156Z,-1.70
2019-03-04T01:55:28.865Z,-1.70
2019-03-04T01:57:56.320Z,-1.80
2019-03-04T02:00:23.714Z,-1.60
2019-03-04T02:02:50.405Z,-1.70
2019-03-04T02:05:17.938Z,-1.50
2019-03-04T02:07:44.656Z,-1.50
2019-03-04T02:10:12.410Z,-1.40
2019-03-04T02:12:41.846Z,-1.40
2019-03-04T02:15:10.185Z,-1.20
2019-03-04T02:17:37.023Z,-1.30
2019-03-04T02:20:03.754Z,-1.20
2019-03-04T02:22:30.405Z,-1.20
2019-03-04T02:24:57.104Z,-1.10
2019-03-04T02:27:24.535Z,-1.00
2019-03-04T02:29:51.279Z,-1.10
2019-03-04T02:32:18.018Z,-1.00
2019-03-04T02:34:44.734Z,-1.00
2019-03-04T02:37:11.392Z,-1.00
2019-03-04T02:39:38.080Z,-1.00
2019-03-04T02:42:05.557Z,-1.00
2019-03-04T02:44:32.239Z,-1.00
2019-03-04T02:46:58.951Z,-1.10
2019-03-04T02:49:25.633Z,-1.10
2019-03-04T02:51:52.362Z,-1.00
2019-03-04T02:54:19.027Z,-1.10
2019-03-04T02:56:46.431Z,-1.10
2019-03-04T02:59:13.126Z,-1.10
2019-03-04T03:01:40.551Z,-1.20
2019-03-04T03:04:07.285Z,-1.20
2019-03-04T03:06:33.935Z,-1.10
2019-03-04T03:09:00.589Z,-1.10
2019-03-04T03:11:28.005Z,-1.00
2019-03-04T03:13:54.667Z,-1.00
2019-03-04T03:16:21.521Z,-1.00
2019-03-04T03:18:48.904Z,-1.00
2019-03-04T03:21:15.629Z,-1.00
2019-03-04T03:23:43.123Z,-1.00
2019-03-04T03:26:09.798Z,-1.10
2019-03-04T03:28:36.503Z,-0.90
2019-03-04T03:31:03.308Z,-0.90
2019-03-04T03:33:30.736Z,-0.90
2019-03-04T03:35:57.430Z,-1.00
2019-03-04T03:38:24.193Z,-1.00
2019-03-04T03:40:51.002Z,-1.10
2019-03-04T03:43:17.742Z,-1.10
2019-03-04T03:45:45.207Z,-1.10
2019-03-04T03:48:11.878Z,-1.10
2019-03-04T03:50:38.564Z,-1.00
2019-03-04T03:53:06.015Z,-0.90
2019-03-04T03:55:33.437Z,-0.90
2019-03-04T03:58:00.468Z,-0.90
2019-03-04T04:00:27.303Z,-0.80
2019-03-04T04:02:53.970Z,-0.80
2019-03-04T04:05:20.697Z,-0.80
2019-03-04T04:07:47.531Z,-0.80
2019-03-04T04:10:15.232Z,-0.80
2019-03-04T04:12:42.724Z,-1.00
2019-03-04T04:15:09.493Z,-1.00
2019-03-04T04:17:36.169Z,-0.90
2019-03-04T04:20:02.892Z,-0.90
2019-03-04T04:22:29.646Z,-0.90
2019-03-04T04:24:56.300Z,-0.90
2019-03-04T04:27:23.716Z,-0.90
2019-03-04T04:29:50.501Z,-1.00
2019-03-04T04:32:17.947Z,-0.90
2019-03-04T04:34:44.598Z,-1.00
2019-03-04T04:37:11.365Z,-0.90
2019-03-04T04:39:38.021Z,-0.80
2019-03-04T04:42:04.678Z,-0.90
2019-03-04T04:44:31.421Z,-0.80
2019-03-04T04:46:58.129Z,-0.80
2019-03-04T04:49:24.808Z,-0.80
2019-03-04T04:51:51.470Z,-1.00
2019-03-04T04:54:18.150Z,-0.90
2019-03-04T04:56:44.835Z,-0.80
2019-03-04T04:59:11.487Z,-0.90
2019-03-04T05:01:38.968Z,-1.10
2019-03-04T05:04:05.699Z,-1.20
2019-03-04T05:06:32.395Z,-1.10
2019-03-04T05:08:59.103Z,-1.00
2019-03-04T05:11:25.791Z,-1.00
2019-03-04T05:13:52.439Z,-1.10
2019-03-04T05:16:19.963Z,-1.00
2019-03-04T05:18:46.866Z,-1.00
2019-03-04T05:21:13.508Z,-1.00
2019-03-04T05:23:40.892Z,-0.90
2019-03-04T05:26:07.584Z,-0.90
2019-03-04T05:28:35.007Z,-0.90
2019-03-04T05:31:02.576Z,-0.90
2019-03-04T05:33:30.072Z,-0.90
2019-03-04T05:35:56.826Z,-0.90
2019-03-04T05:38:24.085Z,-0.90
2019-03-04T05:40:50.848Z,-1.00
2019-03-04T05:43:17.937Z,-1.10
2019-03-04T05:45:54.235Z,-1.10
2019-03-04T05:48:21.061Z,-1.00
2019-03-04T05:50:49.641Z,-1.10
2019-03-04T05:53:16.414Z,-1.00
2019-03-04T05:55:43.554Z,-0.90
2019-03-04T05:58:10.367Z,-0.90
2019-03-04T06:00:40.512Z,-0.80
2019-03-04T06:03:09.253Z,-0.70
2019-03-04T06:05:36.706Z,-0.80
2019-03-04T06:08:04.988Z,-0.80
2019-03-04T06:10:31.807Z,-0.70
2019-03-04T06:13:03.003Z,-0.60
2019-03-04T06:15:32.746Z,-0.60
2019-03-04T06:18:00.326Z,-0.60
2019-03-04T06:20:28.345Z,-0.70
2019-03-04T06:22:55.778Z,-1.10
2019-03-04T06:25:27.475Z,-0.90
2019-03-04T06:27:54.523Z,-1.00
2019-03-04T06:30:23.254Z,-0.90
2019-03-04T06:32:50.156Z,-0.80
2019-03-04T06:35:17.015Z,-0.70
2019-03-04T06:37:43.884Z,-0.60
2019-03-04T06:40:18.901Z,-0.40
2019-03-04T06:42:46.091Z,-0.40
2019-03-04T06:45:13.739Z,-0.50
2019-03-04T06:47:43.125Z,-0.40
2019-03-04T06:50:22.148Z,-0.50
2019-03-04T06:52:48.905Z,-0.50
2019-03-04T06:55:29.670Z,-0.60
2019-03-04T06:57:57.283Z,-0.40
2019-03-04T07:00:33.707Z,-0.40
2019-03-04T07:03:01.480Z,-0.20
2019-03-04T07:05:38.030Z,-0.20
2019-03-04T07:08:05.133Z,-0.20
2019-03-04T07:10:31.829Z,-0.10
2019-03-04T07:12:58.979Z,-0.10
2019-03-04T07:15:31.623Z,-0.10
2019-03-04T07:17:58.363Z,-0.10
2019-03-04T07:20:25.127Z,0.10
2019-03-04T07:22:52.128Z,0.10
2019-03-04T07:25:18.880Z,0.20
2019-03-04T07:27:45.656Z,0.40
2019-03-04T07:30:20.519Z,0.20
2019-03-04T07:32:47.992Z,0.40
2019-03-04T07:35:14.956Z,0.40
2019-03-04T07:37:41.732Z,0.10
2019-03-04T07:40:16.830Z,0.20
2019-03-04T07:42:43.598Z,0.50
2019-03-04T07:45:10.386Z,0.60
2019-03-04T07:47:37.992Z,0.60
2019-03-04T07:50:04.808Z,0.60
2019-03-04T07:52:31.608Z,0.80
2019-03-04T07:54:58.334Z,0.70
2019-03-04T07:57:25.094Z,0.70
2019-03-04T07:59:51.835Z,0.80
2019-03-04T08:02:18.953Z,1.00
2019-03-04T08:04:45.672Z,0.60
2019-03-04T08:07:26.856Z,0.90
2019-03-04T08:12:51.818Z,1.50
2019-03-04T08:15:18.515Z,1.30
2019-03-04T08:17:45.205Z,1.40
2019-03-04T08:20:13.113Z,1.80
2019-03-04T08:22:47.648Z,2.10
2019-03-04T08:25:14.714Z,2.10
2019-03-04T08:27:41.526Z,1.60
2019-03-04T08:30:09.193Z,1.60
2019-03-04T08:32:36.017Z,1.60
2019-03-04T08:35:08.145Z,1.60
2019-03-04T08:37:35.229Z,1.60
2019-03-04T08:40:02.237Z,1.60
2019-03-04T08:42:28.977Z,1.20
2019-03-04T08:44:57.141Z,1.40
2019-03-04T08:47:25.134Z,1.40
2019-03-04T08:49:52.590Z,1.60
2019-03-04T08:52:19.604Z,1.60
2019-03-04T08:54:46.641Z,1.60
2019-03-04T08:57:13.437Z,1.60
2019-03-04T08:59:40.934Z,2.50
2019-03-04T09:02:08.564Z,2.90
2019-03-04T09:04:35.350Z,2.90
2019-03-04T09:07:03.987Z,2.70
2019-03-04T09:09:33.612Z,2.50
2019-03-04T09:12:00.639Z,2.50
2019-03-04T09:14:28.166Z,2.90
2019-03-04T09:16:55.030Z,2.90
2019-03-04T09:19:21.714Z,3.10
2019-03-04T09:21:51.296Z,3.10
2019-03-04T09:24:20.072Z,2.90
2019-03-04T09:26:46.875Z,2.60
2019-03-04T09:29:13.969Z,2.60
2019-03-04T09:31:41.715Z,2.50
2019-03-04T09:34:08.655Z,2.60
2019-03-04T09:36:35.377Z,2.70
2019-03-04T09:39:02.261Z,2.80
2019-03-04T09:41:29.626Z,3.10
2019-03-04T09:43:56.942Z,3.00
2019-03-04T09:46:23.772Z,3.00
2019-03-04T09:48:50.647Z,2.70
2019-03-04T09:51:23.974Z,3.10
2019-03-04T09:53:44.088Z,2.90
2019-03-04T09:56:11.275Z,2.80
2019-03-04T09:58:45.370Z,3.00
2019-03-04T10:01:15.186Z,3.10
2019-03-04T10:03:42.960Z,3.10
2019-03-04T10:06:34.284Z,3.20
2019-03-04T10:09:15.912Z,2.60
2019-03-04T10:14:52.523Z,3.00
2019-03-04T10:20:37.216Z,2.60
2019-03-04T10:23:27.177Z,2.70
2019-03-04T10:26:06.060Z,2.20
2019-03-04T10:31:36.771Z,2.20
2019-03-04T10:34:26.513Z,2.70
2019-03-04T10:37:04.127Z,2.20
2019-03-04T10:39:33.733Z,2.10
2019-03-04T10:42:09.796Z,2.50
2019-03-04T10:47:37.478Z,3.20
2019-03-04T10:50:05.378Z,2.70
2019-03-04T10:52:32.138Z,2.70
2019-03-04T10:54:59.735Z,3.00
2019-03-04T10:57:26.584Z,2.90
2019-03-04T10:59:53.499Z,3.10
2019-03-04T11:02:21.234Z,3.40
2019-03-04T11:04:47.966Z,3.40
2019-03-04T11:07:15.076Z,3.10
2019-03-04T11:09:41.820Z,3.30
2019-03-04T11:12:08.608Z,2.40
2019-03-04T11:14:36.396Z,2.30
2019-03-04T11:17:06.192Z,2.50
2019-03-04T11:19:33.331Z,2.50
2019-03-04T11:22:00.094Z,2.60
2019-03-04T11:24:27.765Z,2.20
2019-03-04T11:26:54.700Z,1.90
2019-03-04T11:29:21.461Z,2.10
2019-03-04T11:31:48.344Z,2.00
2019-03-04T11:34:15.145Z,2.00
2019-03-04T11:36:41.931Z,2.20
2019-03-04T11:39:11.758Z,2.00
2019-03-04T11:41:38.452Z,1.90
2019-03-04T11:44:05.704Z,1.70
2019-03-04T11:46:32.446Z,1.50
2019-03-04T11:49:01.114Z,1.80
2019-03-04T11:51:28.083Z,1.80
2019-03-04T11:53:54.855Z,1.80
2019-03-04T11:56:22.995Z,1.90
2019-03-04T11:58:49.823Z,2.20
2019-03-04T12:01:20.275Z,1.90
2019-03-04T12:03:47.090Z,1.80
2019-03-04T12:06:14.627Z,1.80
2019-03-04T12:08:42.530Z,1.80
2019-03-04T12:11:11.218Z,1.80
2019-03-04T12:13:39.608Z,1.80
2019-03-04T12:16:06.746Z,1.90
2019-03-04T12:18:33.507Z,1.90
2019-03-04T12:21:00.177Z,2.10
2019-03-04T12:23:37.555Z,1.80
2019-03-04T12:26:04.319Z,1.90
2019-03-04T12:28:31.566Z,2.00
2019-03-04T12:30:58.462Z,2.00
2019-03-04T12:33:25.200Z,1.70
2019-03-04T12:35:52.117Z,1.80
2019-03-04T12:38:21.313Z,1.70
2019-03-04T12:40:48.804Z,1.90
2019-03-04T12:43:16.024Z,1.90
2019-03-04T12:45:43.531Z,2.00
2019-03-04T12:48:10.221Z,1.90
2019-03-04T12:50:45.156Z,2.30
2019-03-04T12:53:12.001Z,2.20
2019-03-04T12:55:39.694Z,2.10
2019-03-04T12:58:06.529Z,2.10
2019-03-04T13:00:33.605Z,2.20
2019-03-04T13:03:00.395Z,2.20
2019-03-04T13:05:27.934Z,1.80
2019-03-04T13:07:54.582Z,1.80
2019-03-04T13:10:22.120Z,2.10
2019-03-04T13:12:48.963Z,1.90
2019-03-04T13:15:15.732Z,1.60
2019-03-04T13:17:43.241Z,1.50
2019-03-04T13:20:10.803Z,1.40
2019-03-04T13:22:40.308Z,1.70
2019-03-04T13:25:08.245Z,1.90
2019-03-04T13:27:35.817Z,1.90
2019-03-04T13:30:02.671Z,1.80
2019-03-04T13:32:29.338Z,1.90
2019-03-04T13:34:56.131Z,1.80
2019-03-04T13:37:23.629Z,1.70
2019-03-04T13:39:50.671Z,1.70
2019-03-04T13:42:17.397Z,1.90
2019-03-04T13:44:44.376Z,2.20
2019-03-04T13:47:11.447Z,2.10
2019-03-04T13:49:38.995Z,1.60
2019-03-04T13:52:05.791Z,1.60
2019-03-04T13:54:33.450Z,1.30
2019-03-04T13:57:01.265Z,1.30
2019-03-04T13:59:30.679Z,1.40
2019-03-04T14:01:58.390Z,1.60
2019-03-04T14:04:25.155Z,1.60
2019-03-04T14:06:53.633Z,1.50
2019-03-04T14:09:20.137Z,1.50
2019-03-04T14:11:47.135Z,1.30
2019-03-04T14:14:13.927Z,1.30
2019-03-04T14:16:43.669Z,1.10
2019-03-04T14:19:10.447Z,1.20
2019-03-04T14:21:38.380Z,0.90
2019-03-04T14:24:05.127Z,0.90
2019-03-04T14:26:32.133Z,1.00
2019-03-04T14:28:58.875Z,1.00
2019-03-04T14:31:26.244Z,1.00
2019-03-04T14:33:53.556Z,1.30
2019-03-04T14:36:21.590Z,1.30
2019-03-04T14:38:49.108Z,1.30
2019-03-04T14:41:15.849Z,1.30
2019-03-04T14:43:42.586Z,1.40
2019-03-04T14:46:10.605Z,1.40
2019-03-04T14:48:38.625Z,1.50
2019-03-04T14:51:06.202Z,1.40
2019-03-04T14:53:32.979Z,1.30
2019-03-04T14:56:01.321Z,1.20
2019-03-04T14:58:26.751Z,1.30
2019-03-04T15:00:53.476Z,1.40
2019-03-04T15:03:26.266Z,1.30
2019-03-04T15:05:53.898Z,1.00
2019-03-04T15:08:20.970Z,1.00
2019-03-04T15:10:47.754Z,0.80
2019-03-04T15:13:14.711Z,1.10
2019-03-04T15:15:41.497Z,1.00
2019-03-04T15:18:08.306Z,0.90
2019-03-04T15:20:35.756Z,0.90
2019-03-04T15:23:04.041Z,0.80
2019-03-04T15:25:31.164Z,0.80
2019-03-04T15:28:04.891Z,0.80
2019-03-04T15:30:39.123Z,0.80
2019-03-04T15:33:06.457Z,0.80
2019-03-04T15:35:34.171Z,0.90
2019-03-04T15:38:00.991Z,0.90
2019-03-04T15:40:27.848Z,1.00
2019-03-04T15:42:54.561Z,1.00
2019-03-04T15:45:21.337Z,0.90
2019-03-04T15:47:48.781Z,1.00
2019-03-04T15:50:15.570Z,0.80
2019-03-04T15:52:42.563Z,0.90
2019-03-04T15:55:09.447Z,0.90
2019-03-04T15:57:36.236Z,1.00
2019-03-04T16:00:19.133Z,0.90
2019-03-04T16:02:48.702Z,0.90
2019-03-04T16:05:13.597Z,0.90
2019-03-04T16:07:40.867Z,0.90
2019-03-04T16:10:15.733Z,1.00
2019-03-04T16:12:42.946Z,1.00
2019-03-04T16:15:09.998Z,1.00
2019-03-04T16:17:36.830Z,0.80
2019-03-04T16:20:03.584Z,0.80
2019-03-04T16:22:30.264Z,0.70
2019-03-04T16:24:56.942Z,0.80
2019-03-04T16:27:25.930Z,0.80
2019-03-04T16:29:52.870Z,0.90
2019-03-04T16:32:20.664Z,0.80
2019-03-04T16:34:47.440Z,0.80
2019-03-04T16:37:14.280Z,0.80
2019-03-04T16:39:42.082Z,0.70
2019-03-04T16:42:09.011Z,0.70
2019-03-04T16:44:35.918Z,0.70
2019-03-04T16:47:03.548Z,0.60
2019-03-04T16:49:30.332Z,0.60
2019-03-04T16:51:57.596Z,0.70
2019-03-04T16:54:24.424Z,0.80
2019-03-04T16:56:51.922Z,0.70
2019-03-04T16:59:19.438Z,0.80
2019-03-04T17:01:46.329Z,0.80
2019-03-04T17:04:16.390Z,0.80
2019-03-04T17:06:44.114Z,0.70
2019-03-04T17:09:13.233Z,0.70
2019-03-04T17:11:41.050Z,0.90
2019-03-04T17:14:07.943Z,0.80
2019-03-04T17:16:35.132Z,0.80
2019-03-04T17:19:02.401Z,0.90
2019-03-04T17:21:29.601Z,0.80
2019-03-04T17:23:56.468Z,0.80
2019-03-04T17:26:24.650Z,0.80
2019-03-04T17:28:51.626Z,0.80
2019-03-04T17:31:18.716Z,0.80
2019-03-04T17:33:46.430Z,0.70
2019-03-04T17:36:13.274Z,0.70
2019-03-04T17:38:40.063Z,0.80
2019-03-04T17:41:08.195Z,0.80
2019-03-04T17:43:35.134Z,0.70
2019-03-04T17:46:01.908Z,0.70
2019-03-04T17:48:28.702Z,0.80
2019-03-04T17:50:55.510Z,0.70
2019-03-04T17:53:22.809Z,0.70
2019-03-04T17:55:51.291Z,0.80
2019-03-04T17:58:18.033Z,0.80
2019-03-04T18:00:45.600Z,0.70
2019-03-04T18:03:12.399Z,0.70
2019-03-04T18:05:40.123Z,0.80
2019-03-04T18:08:06.902Z,0.80
2019-03-04T18:10:33.758Z,0.90
2019-03-04T18:13:00.836Z,0.90
2019-03-04T18:15:29.494Z,0.80
2019-03-04T18:17:56.891Z,0.90
2019-03-04T18:20:31.174Z,0.80
2019-03-04T18:22:50.411Z,1.00
2019-03-04T18:28:15.778Z,1.00
2019-03-04T18:30:54.503Z,0.90
2019-03-04T18:33:43.012Z,0.80
2019-03-04T18:36:27.476Z,0.90
2019-03-04T18:42:08.314Z,0.90
2019-03-04T18:45:00.775Z,0.80
2019-03-04T18:47:48.382Z,0.80
2019-03-04T18:50:15.173Z,0.90
2019-03-04T18:52:41.915Z,0.90
2019-03-04T18:55:08.725Z,0.90
2019-03-04T18:57:35.538Z,0.80
2019-03-04T19:00:02.271Z,0.80
2019-03-04T19:02:29.370Z,0.80
2019-03-04T19:04:56.836Z,0.80
2019-03-04T19:07:24.027Z,0.80
2019-03-04T19:09:51.516Z,0.80
2019-03-04T19:12:18.590Z,0.80
2019-03-04T19:14:45.601Z,0.90
2019-03-04T19:17:12.341Z,0.90
2019-03-04T19:19:39.109Z,0.90
2019-03-04T19:22:06.005Z,0.90
2019-03-04T19:24:32.973Z,0.80
2019-03-04T19:27:00.835Z,0.90
2019-03-04T19:29:29.910Z,0.80
2019-03-04T19:31:56.786Z,1.00
2019-03-04T19:34:23.953Z,0.90
2019-03-04T19:36:51.268Z,0.80
2019-03-04T19:39:20.838Z,0.70
2019-03-04T19:41:47.594Z,0.70
2019-03-04T19:44:14.315Z,0.80
2019-03-04T19:46:41.072Z,0.90
2019-03-04T19:49:07.795Z,0.90
2019-03-04T19:51:35.305Z,1.10
2019-03-04T19:54:02.941Z,1.00
2019-03-04T19:56:30.415Z,1.10
2019-03-04T19:58:57.891Z,0.90
2019-03-04T20:01:24.616Z,0.90
2019-03-04T20:03:51.623Z,1.00
2019-03-04T20:06:18.290Z,1.00
2019-03-04T20:08:46.670Z,0.90
2019-03-04T20:11:13.466Z,0.90
2019-03-04T20:13:40.144Z,1.00
2019-03-04T20:16:07.586Z,0.90
2019-03-04T20:18:34.379Z,0.80
2019-03-04T20:21:01.070Z,0.80
2019-03-04T20:23:27.811Z,0.80
2019-03-04T20:25:54.776Z,0.70
2019-03-04T20:28:22.394Z,0.70
2019-03-04T20:30:49.075Z,0.70
2019-03-04T20:33:16.536Z,0.80
2019-03-04T20:35:43.963Z,0.70
2019-03-04T20:38:10.762Z,0.70
2019-03-04T20:40:37.470Z,0.60
2019-03-04T20:43:04.898Z,0.60
2019-03-04T20:45:31.601Z,0.60
2019-03-04T20:47:59.241Z,0.60
2019-03-04T20:50:26.042Z,0.60
2019-03-04T20:52:53.631Z,0.60
2019-03-04T20:55:20.539Z,0.60
2019-03-04T20:57:47.207Z,0.60
2019-03-04T21:00:20.342Z,0.70
2019-03-04T21:02:48.233Z,0.70
2019-03-04T21:05:18.538Z,0.60
2019-03-04T21:07:45.279Z,0.60
2019-03-04T21:10:11.979Z,0.60
2019-03-04T21:12:39.633Z,0.50
2019-03-04T21:15:09.240Z,0.50
2019-03-04T21:17:36.670Z,0.60
2019-03-04T21:20:04.294Z,0.60
2019-03-04T21:22:31.131Z,0.70
2019-03-04T21:24:57.799Z,0.60
2019-03-04T21:27:24.677Z,0.60
2019-03-04T21:29:53.102Z,0.60
2019-03-04T21:32:19.830Z,0.60
2019-03-04T21:35:11.687Z,0.60
2019-03-04T21:37:38.414Z,0.70
2019-03-04T21:40:13.938Z,0.60
2019-03-04T21:43:03.317Z,0.50
2019-03-04T21:48:29.503Z,0.40
2019-03-04T21:51:04.298Z,0.40
2019-03-04T21:53:34.870Z,0.30
2019-03-04T21:58:59.637Z,0.30
2019-03-04T22:01:27.512Z,0.40
2019-03-04T22:03:54.387Z,0.40
2019-03-04T22:06:21.445Z,0.40
2019-03-04T22:08:48.149Z,0.20
2019-03-04T22:11:14.895Z,0.30
2019-03-04T22:13:41.612Z,0.30
2019-03-04T22:16:08.323Z,0.30
2019-03-04T22:18:35.108Z,0.20
2019-03-04T22:21:01.795Z,0.20
2019-03-04T22:23:29.324Z,0.10
2019-03-04T22:26:01.863Z,0.10
2019-03-04T22:28:23.538Z,0.20
2019-03-04T22:30:56.912Z,0.10
2019-03-04T22:33:23.575Z,0.20
2019-03-04T22:35:50.674Z,0.20
2019-03-04T22:38:17.394Z,0.30
2019-03-04T22:40:44.658Z,0.20
2019-03-04T22:43:11.390Z,0.30
2019-03-04T22:45:38.816Z,0.20
2019-03-04T22:48:05.602Z,0.10
2019-03-04T22:50:32.387Z,0.20
2019-03-04T22:52:59.083Z,0.10
2019-03-04T22:55:27.774Z,-0.10
2019-03-04T22:57:54.469Z,-0.10
2019-03-04T23:03:50.571Z,-0.20
2019-03-04T23:06:18.955Z,-0.20
2019-03-04T23:08:48.238Z,-0.30
2019-03-04T23:11:17.426Z,-0.30
2019-03-04T23:13:46.031Z,-0.20
2019-03-04T23:16:13.690Z,-0.30
2019-03-04T23:18:40.630Z,-0.20
2019-03-04T23:21:07.469Z,-0.10
2019-03-04T23:23:34.284Z,-0.20
2019-03-04T23:26:01.931Z,-0.20
2019-03-04T23:28:29.461Z,-0.20
2019-03-04T23:30:56.458Z,-0.30
2019-03-04T23:33:23.299Z,-0.30
2019-03-04T23:35:51.418Z,-0.30
2019-03-04T23:38:18.191Z,-0.40
2019-03-04T23:40:45.632Z,-0.30
2019-03-04T23:43:12.771Z,-0.30
2019-03-04T23:45:41.933Z,-0.30
2019-03-04T23:48:09.456Z,-0.30
2019-03-04T23:50:38.187Z,-0.40
2019-03-04T23:53:05.355Z,-0.40
2019-03-04T23:55:32.944Z,-0.30
2019-03-04T23:57:59.790Z,-0.40
